Weather History for Newcastle, WY

Change the Weather History Date:

Sunday, October 20, 2013

  Actual Average (KCUT) Record (KCUT)
Temperature  
Mean Temperature 40 °F 42 °F  
Max Temperature 44 °F 53 °F 75 °F (1947)
Min Temperature 35 °F 30 °F 10 °F (1976)
Degree Days  
Heating Degree Days 26 24  
Month to date heating degree days 415  
Since 1 July heating degree days 901  
Cooling Degree Days 0 0  
Month to date cooling degree days 0  
Year to date cooling degree days 177  
Moisture  
Dew Point 33 °F    
Average Humidity 80    
Maximum Humidity 93    
Minimum Humidity 61    
Precipitation  
Precipitation 0.05 in 0.05 in 0.57 in (1957)
Month to date precipitation 1.14  
Year to date precipitation 17.63  
Sea Level Pressure  
Sea Level Pressure 29.98 in    
Wind  
Wind Speed 13 mph (NW)    
Max Wind Speed 23 mph    
Max Gust Speed 31 mph    
Visibility 10 miles    
Events Rain    
T = Trace of Precipitation, MM = Missing Value Source: NWS Daily Summary

Daily Weather History Graph

Daily Weather History Graph

Search for Another Location

Airport:

Trip Planner

Search our weather history database for the weather conditions in past years. The results will help you decide how hot, cold, wet, or windy it might be!

Date:

Astronomy

Oct. 20, 2013 Rise Set
Actual Time 7:18 AM MDT 6:04 PM MDT
Civil Twilight 6:49 AM MDT 6:34 PM MDT
Nautical Twilight 6:15 AM MDT 7:07 PM MDT
Astronomical Twilight 5:42 AM MDT 7:40 PM MDT
Moon 7:11 PM MDT (10/20) 9:02 AM MDT (10/20)
Length of Visible Light 11h 45m
Length of Day
10h 46m
Full, 97% of the Moon is Illuminated
Oct 20
Full
Oct 26
Last Quarter
Nov 3
New
Nov 9
First Quarter
Nov 17
Full

Hourly Weather History & Observations

Time (MDT) Temp. Windchill Dew Point Humidity Pressure Visibility Wind Dir Wind Speed Gust Speed Precip Events Conditions
12:15 AM 44.6 °F 40.2 °F 32.0 °F 61% 29.87 in 10.0 mi NNW 8.1 mph - N/A   Scattered Clouds
12:35 AM 44.6 °F 39.2 °F 32.0 °F 61% 29.87 in 10.0 mi NNW 10.4 mph - N/A   Clear
12:55 AM 44.6 °F 39.2 °F 32.0 °F 61% 29.87 in 10.0 mi NNW 10.4 mph - N/A   Scattered Clouds
1:15 AM 44.6 °F 38.1 °F 32.0 °F 61% 29.88 in 10.0 mi NNW 13.8 mph - N/A   Mostly Cloudy
1:35 AM 44.6 °F 39.2 °F 32.0 °F 61% 29.88 in 10.0 mi NW 10.4 mph 16.1 mph N/A   Scattered Clouds
1:55 AM 44.6 °F 37.2 °F 33.8 °F 66% 29.89 in 10.0 mi NW 17.3 mph 28.8 mph N/A   Mostly Cloudy
2:15 AM 42.8 °F 35.8 °F 33.8 °F 70% 29.89 in 10.0 mi NNW 13.8 mph - N/A   Mostly Cloudy
2:35 AM 42.8 °F 36.2 °F 35.6 °F 76% 29.89 in 10.0 mi NNW 12.7 mph 20.7 mph N/A   Light Drizzle
2:55 AM 42.8 °F 37.5 °F 35.6 °F 76% 29.90 in 10.0 mi NNW 9.2 mph - N/A   Clear
3:15 AM 41.0 °F 34.3 °F 35.6 °F 81% 29.90 in 10.0 mi NW 11.5 mph - N/A   Clear
3:35 AM 41.0 °F 33.9 °F 35.6 °F 81% 29.89 in 10.0 mi NNW 12.7 mph - N/A   Scattered Clouds
3:55 AM 41.0 °F 33.5 °F 35.6 °F 81% 29.89 in 10.0 mi NW 13.8 mph 21.9 mph N/A   Clear
4:15 AM 41.0 °F 33.9 °F 35.6 °F 81% 29.89 in 10.0 mi NW 12.7 mph - N/A   Scattered Clouds
4:35 AM 41.0 °F 33.1 °F 35.6 °F 81% 29.89 in 10.0 mi NW 15.0 mph 19.6 mph N/A   Scattered Clouds
4:55 AM 41.0 °F 32.5 °F 35.6 °F 81% 29.90 in 10.0 mi NW 17.3 mph - N/A   Mostly Cloudy
5:15 AM 41.0 °F 32.2 °F 35.6 °F 81% 29.90 in 10.0 mi NW 18.4 mph 24.2 mph N/A   Overcast
5:35 AM 41.0 °F 31.6 °F 33.8 °F 76% 29.90 in 10.0 mi NW 20.7 mph 26.5 mph N/A   Overcast
5:55 AM 41.0 °F 32.8 °F 33.8 °F 76% 29.91 in 10.0 mi NW 16.1 mph - N/A   Overcast
6:15 AM 41.0 °F 32.8 °F 33.8 °F 76% 29.91 in 10.0 mi NW 16.1 mph 20.7 mph N/A   Overcast
6:35 AM 39.2 °F 31.6 °F 35.6 °F 87% 29.92 in 10.0 mi NW 12.7 mph - N/A   Overcast
6:55 AM 39.2 °F 31.6 °F 33.8 °F 81% 29.93 in 10.0 mi NW 12.7 mph 17.3 mph N/A   Overcast
7:15 AM 39.2 °F 31.6 °F 33.8 °F 81% 29.93 in 10.0 mi WNW 12.7 mph - N/A   Overcast
7:35 AM 37.4 °F 27.2 °F 35.6 °F 93% 29.93 in 5.0 mi WNW 19.6 mph 25.3 mph N/A   Drizzle
7:55 AM 37.4 °F 26.9 °F 35.6 °F 93% 29.94 in 5.0 mi NW 20.7 mph 26.5 mph N/A Rain Rain
8:15 AM 37.4 °F 28.2 °F 35.6 °F 93% 29.94 in 10.0 mi NW 16.1 mph - N/A   Mostly Cloudy
8:35 AM 37.4 °F 28.5 °F 35.6 °F 93% 29.95 in 10.0 mi NW 15.0 mph 19.6 mph N/A   Mostly Cloudy
8:55 AM 37.4 °F 28.5 °F 35.6 °F 93% 29.95 in 2.0 mi NW 15.0 mph 24.2 mph 0.02 in Rain Heavy Rain
9:15 AM 35.6 °F 24.5 °F 33.8 °F 93% 29.97 in 2.0 mi NW 20.7 mph 27.6 mph 0.02 in Rain Light Rain
9:35 AM 35.6 °F 25.2 °F 33.8 °F 93% 29.97 in 5.0 mi NW 18.4 mph 25.3 mph 0.03 in Rain Light Rain
9:55 AM 35.6 °F 25.5 °F 33.8 °F 93% 29.97 in 10.0 mi NW 17.3 mph 21.9 mph 0.03 in   Mostly Cloudy
10:15 AM 37.4 °F 28.5 °F 35.6 °F 93% 29.97 in 10.0 mi NW 15.0 mph 23.0 mph N/A   Mostly Cloudy
10:35 AM 39.2 °F 31.6 °F 35.6 °F 87% 29.98 in 10.0 mi NNW 12.7 mph - N/A   Scattered Clouds
10:55 AM 39.2 °F 29.6 °F 33.8 °F 81% 29.98 in 10.0 mi NNW 19.6 mph 25.3 mph N/A   Scattered Clouds
11:15 AM 39.2 °F 29.8 °F 33.8 °F 81% 29.99 in 10.0 mi NNW 18.4 mph 24.2 mph N/A   Scattered Clouds
11:35 AM 41.0 °F 31.9 °F 32.0 °F 70% 30.00 in 10.0 mi NW 19.6 mph 31.1 mph N/A   Mostly Cloudy
11:55 AM 41.0 °F 31.9 °F 32.0 °F 70% 30.00 in 10.0 mi NNW 19.6 mph 25.3 mph N/A   Mostly Cloudy
12:15 PM 41.0 °F 32.5 °F 32.0 °F 70% 30.00 in 10.0 mi NNW 17.3 mph 25.3 mph N/A   Mostly Cloudy
12:35 PM 41.0 °F 31.9 °F 32.0 °F 70% 30.00 in 10.0 mi NNW 19.6 mph 24.2 mph N/A   Mostly Cloudy
12:55 PM 41.0 °F 31.6 °F 32.0 °F 70% 30.00 in 10.0 mi NW 20.7 mph 28.8 mph N/A   Mostly Cloudy
1:15 PM 42.8 °F 33.8 °F 32.0 °F 66% 30.00 in 10.0 mi NNW 21.9 mph 28.8 mph N/A   Scattered Clouds
1:35 PM 42.8 °F 34.3 °F 32.0 °F 66% 30.00 in 10.0 mi NNW 19.6 mph 25.3 mph N/A   Scattered Clouds
1:55 PM 41.0 °F 31.9 °F 30.2 °F 65% 30.00 in 10.0 mi NNW 19.6 mph 25.3 mph N/A   Mostly Cloudy
2:15 PM 42.8 °F 33.8 °F 32.0 °F 66% 30.00 in 10.0 mi NNW 21.9 mph 25.3 mph N/A   Mostly Cloudy
2:35 PM 41.0 °F 32.5 °F 32.0 °F 70% 30.00 in 10.0 mi NW 17.3 mph 23.0 mph N/A   Scattered Clouds
2:55 PM 42.8 °F 33.5 °F 32.0 °F 66% 30.00 in 10.0 mi NW 23.0 mph 26.5 mph N/A   Scattered Clouds
3:15 PM 42.8 °F 33.8 °F 32.0 °F 66% 30.00 in 10.0 mi WNW 21.9 mph 28.8 mph N/A   Mostly Cloudy
3:35 PM 42.8 °F 33.8 °F 32.0 °F 66% 30.02 in 10.0 mi NNW 21.9 mph 29.9 mph N/A   Mostly Cloudy
3:55 PM 41.0 °F 32.5 °F 32.0 °F 70% 30.00 in 10.0 mi NNW 17.3 mph 24.2 mph N/A   Scattered Clouds
4:15 PM 41.0 °F 33.1 °F 30.2 °F 65% 30.01 in 10.0 mi NNW 15.0 mph 23.0 mph N/A   Clear
4:35 PM 37.4 °F 28.2 °F 32.0 °F 81% 30.02 in 10.0 mi NW 16.1 mph 21.9 mph N/A   Light Drizzle
4:55 PM 41.0 °F 33.1 °F 32.0 °F 70% 30.02 in 10.0 mi NNW 15.0 mph - N/A   Scattered Clouds
5:15 PM 41.0 °F 33.9 °F 32.0 °F 70% 30.03 in 10.0 mi North 12.7 mph 20.7 mph N/A   Light Drizzle
5:35 PM 39.2 °F 32.5 °F 32.0 °F 75% 30.03 in 10.0 mi NNW 10.4 mph - N/A   Scattered Clouds
5:55 PM 37.4 °F 30.8 °F 32.0 °F 81% 30.03 in 10.0 mi NNW 9.2 mph - N/A   Clear
6:15 PM 37.4 °F 29.8 °F 32.0 °F 81% 30.04 in 10.0 mi NNW 11.5 mph 19.6 mph N/A   Light Drizzle
6:35 PM 35.6 °F 28.6 °F 32.0 °F 87% 30.04 in 10.0 mi NNW 9.2 mph - N/A   Scattered Clouds
6:55 PM 35.6 °F 30.7 °F 32.0 °F 87% 30.05 in 10.0 mi NW 5.8 mph - N/A   Scattered Clouds
7:15 PM 35.6 °F 29.9 °F 32.0 °F 87% 30.06 in 10.0 mi NW 6.9 mph - N/A   Mostly Cloudy
7:35 PM 35.6 °F 30.7 °F 32.0 °F 87% 30.06 in 10.0 mi NW 5.8 mph - N/A   Overcast
7:55 PM 35.6 °F 30.7 °F 32.0 °F 87% 30.06 in 10.0 mi NW 5.8 mph - N/A   Overcast
8:15 PM 35.6 °F 29.9 °F 32.0 °F 87% 30.06 in 10.0 mi NW 6.9 mph - N/A   Mostly Cloudy
8:35 PM 35.6 °F 30.7 °F 33.8 °F 93% 30.07 in 10.0 mi WNW 5.8 mph - N/A   Mostly Cloudy
8:55 PM 35.6 °F 30.7 °F 33.8 °F 93% 30.07 in 10.0 mi WNW 5.8 mph - N/A   Light Drizzle
9:15 PM 35.6 °F 31.7 °F 33.8 °F 93% 30.07 in 10.0 mi WNW 4.6 mph - N/A   Mostly Cloudy
9:35 PM 35.6 °F 31.7 °F 33.8 °F 93% 30.07 in 10.0 mi West 4.6 mph - N/A   Overcast
9:55 PM 35.6 °F 31.7 °F 33.8 °F 93% 30.07 in 10.0 mi WNW 4.6 mph - N/A   Overcast
10:15 PM 35.6 °F 31.7 °F 33.8 °F 93% 30.07 in 10.0 mi NW 4.6 mph - N/A   Mostly Cloudy
10:35 PM 35.6 °F 30.7 °F 33.8 °F 93% 30.08 in 10.0 mi WNW 5.8 mph - N/A   Mostly Cloudy
10:55 PM 35.6 °F 31.7 °F 33.8 °F 93% 30.07 in 10.0 mi West 4.6 mph - N/A   Overcast
11:15 PM 35.6 °F 30.7 °F 33.8 °F 93% 30.07 in 10.0 mi West 5.8 mph - N/A   Overcast
11:35 PM 35.6 °F 29.2 °F 33.8 °F 93% 30.07 in 10.0 mi WNW 8.1 mph - N/A   Overcast
11:55 PM 35.6 °F 29.2 °F 33.8 °F 93% 30.08 in 10.0 mi NW 8.1 mph - N/A   Overcast